• Join FlightAware (Why Join?)
  • Login
  • US Flag 
08:36AM EDT


 

Airport Tracker/Info


-or-


 

Live Flight TrackerFlight Track Log ✈ UPS1122 ✈ 18-Jun-2013 ✈ KPHL - KBDL

Flight Track Log - Related Links

Times and Time Zones

All times are in EDT time to prevent confusion due to time zone crossing. See the UPS1122 flight status page for this flight to view local times or setup timezone preferences in your user account.

Time Position Orientation Groundspeed Altitude Reporting Facility
EDT Latitude Longitude Course Direction KTS MPH feet Rate Location/Type
03:47AM 39.8560 -75.2860 243° Southwest 153 176 1,700  Level FlightAware
03:47AM 39.8460 -75.3080 239° Southwest 183 211 2,100 1,620 Climbing FlightAware
03:48AM 39.8340 -75.3170 210° Southwest 198 228 2,800 2,520 Climbing FlightAware
03:48AM 39.8080 -75.3090 167° South 229 264 3,900 2,220 Climbing FlightAware
03:48AM 39.7970 -75.2900 127° Southeast 254 292 4,400 2,280 Climbing FlightAware
03:49AM 39.7940 -75.2670 100° East 267 307 5,100 3,060 Climbing FlightAware
03:49AM 39.8010 -75.2220 79° East 275 316 6,600 3,060 Climbing FlightAware
03:49AM 39.8040 -75.1810 85° East 289 333 7,800 3,060 Climbing FlightAware
03:50AM 39.8032 -75.1377 91° East 296 341 9,100 3,000 Climbing FlightAware ADS-B
03:50AM 39.8027 -75.1097 91° East 307 353 9,800 2,760 Climbing FlightAware ADS-B
03:50AM 39.8023 -75.0833 91° East 312 359 10,500 1,860 Climbing FlightAware ADS-B
03:51AM 39.8006 -75.0229 92° East 353 406 11,200 1,440 Climbing FlightAware ADS-B
03:51AM 39.7994 -74.9547 91° East 374 430 12,000 780 Climbing FlightAware ADS-B
03:52AM 39.7981 -74.8860 91° East 368 423 12,000 480 Level FlightAware ADS-B
03:52AM 39.7968 -74.8159 91° East 382 440 12,500 1,380 Climbing FlightAware ADS-B
03:53AM 39.7961 -74.7786 91° East 392 451 13,100 2,100 Climbing FlightAware ADS-B
03:53AM 39.7961 -74.7710 90° East 394 453 13,200 2,160 Climbing FlightAware ADS-B
03:53AM 39.7974 -74.7539 84° East 398 458 13,500 2,700 Climbing FlightAware ADS-B
03:53AM 39.8042 -74.7245 73° East 401 461 14,100 3,000 Climbing FlightAware ADS-B
03:53AM 39.8110 -74.7078 62° Northeast 404 465 14,500 2,760 Climbing FlightAware ADS-B
03:53AM 39.8190 -74.6936 54° Northeast 405 466 14,800 2,460 Climbing FlightAware ADS-B
03:53AM 39.8240 -74.6865 47° Northeast 405 466 15,000 3,120 Climbing FlightAware ADS-B
03:54AM 39.8515 -74.6551 41° Northeast 410 472 16,000 3,060 Climbing FlightAware ADS-B
03:54AM 39.8964 -74.6077 39° Northeast 421 484 17,500 3,000 Climbing FlightAware ADS-B
03:55AM 39.9427 -74.5591 39° Northeast 430 495 19,000 2,820 Climbing FlightAware ADS-B
03:55AM 39.9904 -74.5086 39° Northeast 442 509 20,400 2,880 Climbing FlightAware ADS-B
03:56AM 40.0404 -74.4551 39° Northeast 438 504 22,000 2,400 Climbing FlightAware ADS-B
03:56AM 40.0871 -74.4049 39° Northeast 432 497 22,900 960 Climbing FlightAware ADS-B
03:57AM 40.1345 -74.3543 39° Northeast 441 507 23,000 60 Climbing FlightAware ADS-B
03:57AM 40.1830 -74.3023 39° Northeast 438 504 23,000  Level FlightAware ADS-B
03:57AM 40.1995 -74.2845 39° Northeast 436 502 23,000  Level FlightAware ADS-B
03:58AM 40.2483 -74.2325 39° Northeast 435 501 23,000  Level FlightAware ADS-B
03:58AM 40.2960 -74.1816 39° Northeast 438 504 23,000  Level FlightAware ADS-B
03:59AM 40.3439 -74.1301 39° Northeast 438 504 23,000  Level FlightAware ADS-B
03:59AM 40.3911 -74.0788 40° Northeast 437 503 23,000  Level FlightAware ADS-B
04:00AM 40.4378 -74.0278 40° Northeast 437 503 23,000  Level FlightAware ADS-B
04:00AM 40.4860 -73.9753 40° Northeast 435 501 23,000  Level FlightAware ADS-B
04:01AM 40.5450 -73.9110 40° Northeast 433 498 23,000  Level FlightAware
04:02AM 40.6130 -73.8370 40° Northeast 433 498 23,000  Level FlightAware
04:02AM 40.6730 -73.7710 40° Northeast 434 499 23,000  Level FlightAware
04:03AM 40.7440 -73.6930 40° Northeast 434 499 23,000  Level FlightAware
04:04AM 40.8020 -73.6300 39° Northeast 436 502 23,000  Level FlightAware
04:05AM 40.8700 -73.5540 40° Northeast 438 504 23,000  Level FlightAware
04:05AM 40.9260 -73.4930 39° Northeast 439 505 23,000 -1,020 Level FlightAware
04:06AM 40.9970 -73.4130 40° Northeast 443 510 21,600 -2,340 Descending FlightAware
04:07AM 41.0670 -73.3350 40° Northeast 441 507 19,800 -2,700 Descending FlightAware
04:07AM 41.1310 -73.2640 40° Northeast 425 489 17,900 -2,520 Descending FlightAware
04:08AM 41.1950 -73.1910 41° Northeast 415 478 16,300 -2,160 Descending FlightAware
04:09AM 41.2600 -73.1180 40° Northeast 405 466 14,700 -1,440 Descending FlightAware
04:10AM 41.3270 -73.0440 40° Northeast 397 457 14,000 -2,100 Descending FlightAware
04:10AM 41.3870 -72.9750 41° Northeast 383 441 11,500 -1,920 Descending FlightAware
04:11AM 41.4310 -72.9260 40° Northeast 383 441 11,500  Level FlightAware
04:12AM 41.4860 -72.8640 40° Northeast 383 441 11,500 -1,800 Level FlightAware
04:13AM 41.5700 -72.8839 40° Northeast 297 342 8,800 -3,120 Descending Boston Center
04:13AM 41.6222 -72.8789 North 301 346 7,200 -1,680 Descending Boston Center
04:14AM 41.6972 -72.8739 North 285 328 6,000 -780 Descending Boston Center
04:15AM 41.7431 -72.8714 North 258 297 5,700 -1,020 Descending Boston Center
04:16AM 41.8161 -72.8550 North 235 270 4,000 -1,620 Descending Boston Center
04:17AM 41.8539 -72.8053 44° Northeast 193 222 2,500 -1,200 Descending Boston Center
04:18AM 41.8811 -72.7664 47° Northeast 163 188 1,700 -780 Descending Boston Center
04:19AM 41.9061 -72.7331 45° Northeast 137 158 1,000 -720 Descending Boston Center
04:20AM 41.9311 -72.6997 45° Northeast 126 145 300 -720 Descending Boston Center
04:25AM 41.9333 -72.6833 16° North  Level FlightAware Approximate
04:32AM 41.9392 -72.6834 16° North  Level Estimated
04:33AM 41.9333 -72.6833 16° North  Level FlightAware Approximate
04:34AM 41.9392 -72.6834 16° North  Level Estimated